createdAt,value
2019-03-25T00:02:18.618Z,100921.11
2019-03-25T00:04:49.252Z,100921.73
2019-03-25T00:07:19.219Z,100916.62
2019-03-25T00:09:49.636Z,100921.64
2019-03-25T00:12:19.605Z,100918.13
2019-03-25T00:14:50.123Z,100915.72
2019-03-25T00:17:20.878Z,100915.27
2019-03-25T00:19:51.242Z,100912.72
2019-03-25T00:22:21.872Z,100911.50
2019-03-25T00:24:52.745Z,100906.70
2019-03-25T00:27:23.604Z,100910.70
2019-03-25T00:29:54.235Z,100906.23
2019-03-25T00:32:24.312Z,100899.16
2019-03-25T00:34:54.840Z,100895.66
2019-03-25T00:37:24.788Z,100895.16
2019-03-25T00:39:55.308Z,100900.07
2019-03-25T00:42:26.079Z,100898.52
2019-03-25T00:44:56.728Z,100890.79
2019-03-25T00:47:27.566Z,100892.84
2019-03-25T00:49:58.222Z,100888.15
2019-03-25T00:52:28.991Z,100889.42
2019-03-25T00:54:58.948Z,100889.70
2019-03-25T00:57:29.460Z,100883.08
2019-03-25T01:00:00.379Z,100882.41
2019-03-25T01:02:31.272Z,100883.53
2019-03-25T01:05:02.046Z,100877.98
2019-03-25T01:07:32.694Z,100880.58
2019-03-25T01:10:04.679Z,100876.94
2019-03-25T01:12:35.533Z,100883.20
2019-03-25T01:15:07.413Z,100880.75
2019-03-25T01:17:38.164Z,100885.88
2019-03-25T01:20:09.161Z,100885.32
2019-03-25T01:22:40.186Z,100884.68
2019-03-25T01:25:10.939Z,100888.45
2019-03-25T01:27:41.589Z,100887.76
2019-03-25T01:30:12.329Z,100890.17
2019-03-25T01:32:43.078Z,100892.02
2019-03-25T01:35:13.849Z,100884.98
2019-03-25T01:37:44.503Z,100885.45
2019-03-25T01:40:15.361Z,100888.53
2019-03-25T01:42:46.095Z,100879.77
2019-03-25T01:45:16.868Z,100883.98
2019-03-25T01:47:47.604Z,100884.05
2019-03-25T01:50:18.479Z,100879.89
2019-03-25T01:52:49.110Z,100878.05
2019-03-25T01:55:19.887Z,100882.86
2019-03-25T01:57:50.533Z,100881.31
2019-03-25T02:00:21.388Z,100885.58
2019-03-25T02:02:52.142Z,100872.48
2019-03-25T02:05:22.899Z,100876.92
2019-03-25T02:07:53.657Z,100872.17
2019-03-25T02:10:24.511Z,100877.97
2019-03-25T02:12:55.262Z,100876.15
2019-03-25T02:15:25.916Z,100875.20
2019-03-25T02:17:56.768Z,100868.08
2019-03-25T02:20:27.404Z,100871.17
2019-03-25T02:22:58.386Z,100864.59
2019-03-25T02:25:29.217Z,100875.07
2019-03-25T02:28:00.088Z,100868.27
2019-03-25T02:30:30.727Z,100872.89
2019-03-25T02:33:00.690Z,100869.78
2019-03-25T02:35:31.212Z,100867.72
2019-03-25T02:38:01.987Z,100863.64
2019-03-25T02:40:32.847Z,100865.59
2019-03-25T02:43:03.698Z,100867.72
2019-03-25T02:45:34.549Z,100865.20
2019-03-25T02:48:06.426Z,100859.38
2019-03-25T02:50:37.163Z,100863.51
2019-03-25T02:53:08.042Z,100868.13
2019-03-25T02:55:41.774Z,100868.23
2019-03-25T02:58:11.287Z,100870.39
2019-03-25T03:00:42.138Z,100872.88
2019-03-25T03:03:12.897Z,100864.87
2019-03-25T03:05:43.527Z,100871.22
2019-03-25T03:08:14.401Z,100872.14
2019-03-25T03:10:45.279Z,100876.83
2019-03-25T03:13:16.132Z,100882.75
2019-03-25T03:15:46.768Z,100889.62
2019-03-25T03:18:16.614Z,100887.95
2019-03-25T03:20:47.028Z,100885.77
2019-03-25T03:23:17.703Z,100890.92
2019-03-25T03:25:56.977Z,100887.68
2019-03-25T03:28:21.048Z,100887.79
2019-03-25T03:30:51.681Z,100885.06
2019-03-25T03:33:22.434Z,100885.66
2019-03-25T03:35:53.309Z,100878.97
2019-03-25T03:38:24.065Z,100887.14
2019-03-25T03:40:54.715Z,100886.84
2019-03-25T03:43:25.453Z,100884.59
2019-03-25T03:45:56.323Z,100884.01
2019-03-25T03:48:27.980Z,100885.36
2019-03-25T03:50:58.657Z,100895.17
2019-03-25T03:53:29.285Z,100898.30
2019-03-25T03:56:11.947Z,100896.02
2019-03-25T03:58:31.117Z,100886.45
2019-03-25T04:01:02.059Z,100891.25
2019-03-25T04:03:32.935Z,100890.67
2019-03-25T04:06:03.564Z,100889.43
2019-03-25T04:08:34.294Z,100888.13
2019-03-25T04:11:05.087Z,100887.65
2019-03-25T04:13:35.943Z,100899.16
2019-03-25T04:16:06.579Z,100897.91
2019-03-25T04:18:37.349Z,100901.82
2019-03-25T04:21:07.888Z,100902.50
2019-03-25T04:23:38.752Z,100901.55
2019-03-25T04:26:09.506Z,100902.64
2019-03-25T04:28:40.263Z,100901.69
2019-03-25T04:31:11.016Z,100899.18
2019-03-25T04:33:41.750Z,100898.41
2019-03-25T04:36:12.504Z,100896.62
2019-03-25T04:38:43.275Z,100893.98
2019-03-25T04:41:13.933Z,100895.41
2019-03-25T04:43:44.783Z,100889.91
2019-03-25T04:46:15.636Z,100880.95
2019-03-25T04:48:47.090Z,100878.56
2019-03-25T04:51:17.863Z,100883.84
2019-03-25T04:53:48.617Z,100879.49
2019-03-25T04:56:19.350Z,100879.86
2019-03-25T04:58:50.107Z,100878.53
2019-03-25T05:01:20.759Z,100875.90
2019-03-25T05:03:51.409Z,100879.66
2019-03-25T05:06:21.487Z,100874.09
2019-03-25T05:08:52.014Z,100876.97
2019-03-25T05:11:30.635Z,100875.32
2019-03-25T05:13:54.850Z,100872.48
2019-03-25T05:16:25.706Z,100864.95
2019-03-25T05:18:56.339Z,100867.13
2019-03-25T05:21:26.310Z,100871.56
2019-03-25T05:23:56.829Z,100873.81
2019-03-25T05:26:27.480Z,100868.05
2019-03-25T05:28:57.444Z,100868.33
2019-03-25T05:31:27.978Z,100864.98
2019-03-25T05:33:58.626Z,100860.87
2019-03-25T05:36:28.691Z,100860.55
2019-03-25T05:38:59.221Z,100858.92
2019-03-25T05:41:29.854Z,100855.13
2019-03-25T05:44:00.729Z,100857.90
2019-03-25T05:46:31.359Z,100855.30
2019-03-25T05:49:03.152Z,100852.39
2019-03-25T05:51:33.787Z,100847.67
2019-03-25T05:54:04.561Z,100855.14
2019-03-25T05:56:35.298Z,100856.64
2019-03-25T05:59:06.177Z,100862.45
2019-03-25T06:01:36.925Z,100862.61
2019-03-25T06:04:07.557Z,100868.42
2019-03-25T06:06:38.312Z,100867.96
2019-03-25T06:09:09.184Z,100861.63
2019-03-25T06:11:39.938Z,100865.30
2019-03-25T06:14:10.469Z,100864.02
2019-03-25T06:16:41.344Z,100860.67
2019-03-25T06:19:12.099Z,100856.33
2019-03-25T06:21:42.850Z,100850.91
2019-03-25T06:24:13.383Z,100855.03
2019-03-25T06:26:44.257Z,100850.48
2019-03-25T06:29:15.067Z,100850.84
2019-03-25T06:31:45.747Z,100849.47
2019-03-25T06:34:15.825Z,100851.31
2019-03-25T06:36:46.335Z,100844.60
2019-03-25T06:39:17.006Z,100847.80
2019-03-25T06:41:47.739Z,100849.08
2019-03-25T06:44:18.611Z,100846.63
2019-03-25T06:46:49.491Z,100854.61
2019-03-25T06:49:21.434Z,100849.20
2019-03-25T06:51:52.211Z,100847.85
2019-03-25T06:54:22.856Z,100847.92
2019-03-25T06:56:53.712Z,100847.52
2019-03-25T06:59:24.879Z,100847.99
2019-03-25T07:01:55.304Z,100839.06
2019-03-25T07:04:26.573Z,100846.75
2019-03-25T07:06:57.497Z,100843.20
2019-03-25T07:09:29.858Z,100845.85
2019-03-25T07:12:00.690Z,100841.75
2019-03-25T07:14:31.139Z,100842.89
2019-03-25T07:17:03.930Z,100835.98
2019-03-25T07:19:34.388Z,100831.31
2019-03-25T07:22:08.168Z,100829.61
2019-03-25T07:24:40.294Z,100831.09
2019-03-25T07:27:12.573Z,100822.91
2019-03-25T07:29:43.420Z,100828.03
2019-03-25T07:32:14.396Z,100821.66
2019-03-25T07:34:45.065Z,100823.83
2019-03-25T07:37:17.316Z,100820.41
2019-03-25T07:39:48.582Z,100820.25
2019-03-25T07:42:19.232Z,100821.50
2019-03-25T07:44:50.717Z,100826.97
2019-03-25T07:47:21.405Z,100813.86
2019-03-25T07:49:52.826Z,100802.16
2019-03-25T07:52:23.183Z,100804.46
2019-03-25T07:54:54.064Z,100794.75
2019-03-25T07:57:23.896Z,100791.88
2019-03-25T07:59:54.425Z,100794.52
2019-03-25T08:02:25.178Z,100785.83
2019-03-25T08:04:56.791Z,100779.02
2019-03-25T08:07:27.085Z,100773.97
2019-03-25T08:09:58.169Z,100768.18
2019-03-25T08:12:28.721Z,100764.70
2019-03-25T08:14:59.473Z,100778.33
2019-03-25T08:17:31.428Z,100778.20
2019-03-25T08:20:02.399Z,100779.10
2019-03-25T08:22:34.379Z,100776.26
2019-03-25T08:25:07.035Z,100776.73
2019-03-25T08:27:37.710Z,100781.36
2019-03-25T08:30:08.477Z,100782.98
2019-03-25T08:32:39.115Z,100791.60
2019-03-25T08:35:09.867Z,100791.59
2019-03-25T08:37:40.743Z,100795.59
2019-03-25T08:40:11.495Z,100798.32
2019-03-25T08:42:42.129Z,100800.05
2019-03-25T08:45:13.719Z,100796.25
2019-03-25T08:47:44.045Z,100804.71
2019-03-25T08:50:15.639Z,100806.13
2019-03-25T08:52:46.389Z,100807.06
2019-03-25T08:55:17.143Z,100804.03
2019-03-25T08:57:48.113Z,100808.02
2019-03-25T09:00:18.548Z,100808.70
2019-03-25T09:02:49.303Z,100801.91
2019-03-25T09:05:20.376Z,100805.12
2019-03-25T09:07:50.960Z,100807.41
2019-03-25T09:10:21.647Z,100799.40
2019-03-25T09:12:52.300Z,100800.55
2019-03-25T09:15:23.172Z,100793.05
2019-03-25T09:17:54.030Z,100792.86
2019-03-25T09:20:24.869Z,100786.31
2019-03-25T09:22:55.417Z,100784.41
2019-03-25T09:25:26.292Z,100786.66
2019-03-25T09:27:57.966Z,100793.63
2019-03-25T09:30:46.437Z,100792.22
2019-03-25T09:33:17.274Z,100786.37
2019-03-25T09:35:48.061Z,100778.84
2019-03-25T09:38:18.884Z,100779.01
2019-03-25T09:40:49.735Z,100768.87
2019-03-25T09:43:20.593Z,100764.91
2019-03-25T09:45:51.348Z,100764.30
2019-03-25T09:48:22.084Z,100757.00
2019-03-25T09:50:53.879Z,100758.38
2019-03-25T09:53:24.833Z,100756.27
2019-03-25T09:55:55.280Z,100748.64
2019-03-25T09:58:35.589Z,100750.79
2019-03-25T10:00:58.119Z,100740.45
2019-03-25T10:03:28.873Z,100736.24
2019-03-25T10:05:59.610Z,100729.94
2019-03-25T10:08:30.378Z,100736.98
2019-03-25T10:11:01.032Z,100738.87
2019-03-25T10:13:31.886Z,100738.35
2019-03-25T10:16:03.336Z,100740.22
2019-03-25T10:18:34.011Z,100738.33
2019-03-25T10:21:04.763Z,100734.66
2019-03-25T10:23:35.524Z,100738.06
2019-03-25T10:26:06.152Z,100735.63
2019-03-25T10:28:48.076Z,100734.98
2019-03-25T10:31:09.503Z,100729.20
2019-03-25T10:33:40.151Z,100729.16
2019-03-25T10:36:13.996Z,100737.43
2019-03-25T10:38:46.004Z,100732.94
2019-03-25T10:41:17.133Z,100714.16
2019-03-25T10:43:50.787Z,100708.97
2019-03-25T10:46:21.866Z,100714.31
2019-03-25T10:49:02.709Z,100705.83
2019-03-25T10:51:37.999Z,100694.56
2019-03-25T10:54:09.110Z,100693.22
2019-03-25T10:56:48.834Z,100687.50
2019-03-25T10:59:11.950Z,100686.33
2019-03-25T11:01:42.804Z,100676.55
2019-03-25T11:04:13.437Z,100676.80
2019-03-25T11:06:44.111Z,100672.60
2019-03-25T11:09:14.980Z,100669.51
2019-03-25T11:11:45.803Z,100661.42
2019-03-25T11:14:16.578Z,100661.19
2019-03-25T11:16:47.227Z,100656.38
2019-03-25T11:19:18.082Z,100640.37
2019-03-25T11:21:47.829Z,100637.82
2019-03-25T11:24:18.265Z,100638.17
2019-03-25T11:26:48.810Z,100630.66
2019-03-25T11:29:19.547Z,100628.68
2019-03-25T11:31:50.201Z,100620.37
2019-03-25T11:34:21.174Z,100621.38
2019-03-25T11:36:51.723Z,100623.56
2019-03-25T11:39:22.577Z,100615.93
2019-03-25T11:41:53.650Z,100619.63
2019-03-25T11:44:24.273Z,100608.92
2019-03-25T11:46:55.031Z,100602.20
2019-03-25T11:49:25.799Z,100603.73
2019-03-25T11:51:57.368Z,100594.08
2019-03-25T11:54:28.005Z,100592.45
2019-03-25T11:56:58.776Z,100590.56
2019-03-25T11:59:29.515Z,100586.09
2019-03-25T12:02:00.389Z,100584.52
2019-03-25T12:04:31.242Z,100582.70
2019-03-25T12:07:01.896Z,100583.32
2019-03-25T12:09:32.683Z,100583.52
2019-03-25T12:12:02.395Z,100584.84
2019-03-25T12:14:32.826Z,100579.25
2019-03-25T12:17:03.566Z,100580.86
2019-03-25T12:19:34.318Z,100582.05
2019-03-25T12:22:04.972Z,100586.00
2019-03-25T12:24:35.744Z,100583.64
2019-03-25T12:27:06.394Z,100582.84
2019-03-25T12:29:37.251Z,100586.40
2019-03-25T12:32:08.004Z,100583.23
2019-03-25T12:34:38.639Z,100575.62
2019-03-25T12:37:09.389Z,100568.58
2019-03-25T12:39:40.265Z,100573.84
2019-03-25T12:42:11.021Z,100571.12
2019-03-25T12:44:41.673Z,100571.59
2019-03-25T12:47:12.304Z,100569.27
2019-03-25T12:49:43.175Z,100560.22
2019-03-25T12:52:14.836Z,100564.77
2019-03-25T12:54:45.485Z,100559.23
2019-03-25T12:57:16.140Z,100549.58
2019-03-25T12:59:46.688Z,100549.58
2019-03-25T13:02:17.441Z,100548.66
2019-03-25T13:04:48.314Z,100546.59
2019-03-25T13:07:19.068Z,100554.98
2019-03-25T13:09:49.720Z,100542.53
2019-03-25T13:12:20.579Z,100546.89
2019-03-25T13:14:52.839Z,100546.05
2019-03-25T13:17:23.513Z,100545.84
2019-03-25T13:19:56.114Z,100543.38
2019-03-25T13:22:27.170Z,100539.91
2019-03-25T13:24:57.825Z,100529.16
2019-03-25T13:27:28.456Z,100528.13
2019-03-25T13:29:59.128Z,100525.29
2019-03-25T13:32:29.980Z,100519.34
2019-03-25T13:35:00.842Z,100517.75
2019-03-25T13:37:31.596Z,100521.23
2019-03-25T13:40:02.365Z,100521.39
2019-03-25T13:42:33.184Z,100519.44
2019-03-25T13:45:04.781Z,100522.70
2019-03-25T13:47:35.323Z,100524.48
2019-03-25T13:50:07.206Z,100527.41
2019-03-25T13:52:38.978Z,100516.12
2019-03-25T13:55:09.835Z,100528.09
2019-03-25T13:57:40.572Z,100520.40
2019-03-25T14:00:11.241Z,100529.14
2019-03-25T14:02:44.348Z,100529.45
2019-03-25T14:05:15.001Z,100530.92
2019-03-25T14:07:45.856Z,100523.50
2019-03-25T14:10:16.790Z,100518.39
2019-03-25T14:12:47.567Z,100529.43
2019-03-25T14:15:18.423Z,100532.89
2019-03-25T14:17:49.293Z,100530.36
2019-03-25T14:20:20.034Z,100528.27
2019-03-25T14:22:50.568Z,100534.43
2019-03-25T14:25:21.440Z,100539.76
2019-03-25T14:27:52.987Z,100527.03
2019-03-25T14:30:23.865Z,100525.74
2019-03-25T14:32:56.512Z,100523.72
2019-03-25T14:35:28.155Z,100511.47
2019-03-25T14:37:59.574Z,100512.33
2019-03-25T14:40:30.197Z,100510.21
2019-03-25T14:43:01.010Z,100509.94
2019-03-25T14:45:31.670Z,100513.16
2019-03-25T14:48:02.522Z,100511.42
2019-03-25T14:50:33.272Z,100516.62
2019-03-25T14:53:04.941Z,100509.67
2019-03-25T14:55:35.586Z,100507.03
2019-03-25T14:58:06.336Z,100496.20
2019-03-25T15:00:37.209Z,100492.70
2019-03-25T15:03:07.967Z,100492.05
2019-03-25T15:05:38.725Z,100494.59
2019-03-25T15:08:09.351Z,100491.17
2019-03-25T15:10:40.109Z,100488.26
2019-03-25T15:13:10.875Z,100488.89
2019-03-25T15:15:41.632Z,100482.59
2019-03-25T15:18:15.737Z,100483.94
2019-03-25T15:20:44.660Z,100484.42
2019-03-25T15:23:14.731Z,100482.52
2019-03-25T15:25:45.265Z,100484.63
2019-03-25T15:28:15.890Z,100485.34
2019-03-25T15:30:45.972Z,100484.48
2019-03-25T15:33:16.375Z,100488.63
2019-03-25T15:35:47.263Z,100487.27
2019-03-25T15:38:18.208Z,100497.05
2019-03-25T15:40:49.487Z,100491.03
2019-03-25T15:43:19.920Z,100488.90
2019-03-25T15:45:52.085Z,100486.64
2019-03-25T15:48:22.963Z,100486.66
2019-03-25T15:50:53.717Z,100485.88
2019-03-25T15:53:28.833Z,100485.47
2019-03-25T15:55:59.740Z,100486.97
2019-03-25T15:58:30.475Z,100491.88
2019-03-25T16:01:01.239Z,100485.58
2019-03-25T16:03:34.133Z,100479.51
2019-03-25T16:06:04.771Z,100483.15
2019-03-25T16:08:35.543Z,100476.09
2019-03-25T16:11:06.291Z,100468.53
2019-03-25T16:13:41.530Z,100466.26
2019-03-25T16:16:12.288Z,100460.34
2019-03-25T16:18:43.160Z,100456.42
2019-03-25T16:21:13.790Z,100462.58
2019-03-25T16:23:43.871Z,100465.39
2019-03-25T16:26:14.260Z,100470.66
2019-03-25T16:28:45.151Z,100463.96
2019-03-25T16:31:15.679Z,100466.39
2019-03-25T16:33:46.555Z,100464.52
2019-03-25T16:36:20.172Z,100465.63
2019-03-25T16:38:50.927Z,100465.14
2019-03-25T16:41:21.577Z,100470.73
2019-03-25T16:43:52.319Z,100468.13
2019-03-25T16:46:23.187Z,100466.25
2019-03-25T16:48:55.178Z,100462.63
2019-03-25T16:51:25.924Z,100466.02
2019-03-25T16:53:57.380Z,100458.28
2019-03-25T16:56:28.146Z,100464.66
2019-03-25T16:58:58.678Z,100455.19
2019-03-25T17:01:29.431Z,100470.15
2019-03-25T17:04:00.305Z,100472.55
2019-03-25T17:06:31.057Z,100486.81
2019-03-25T17:09:01.716Z,100487.08
2019-03-25T17:11:32.567Z,100496.25
2019-03-25T17:14:03.344Z,100503.40
2019-03-25T17:16:34.079Z,100506.34
2019-03-25T17:19:04.726Z,100526.90
2019-03-25T17:21:35.568Z,100528.33
2019-03-25T17:24:09.032Z,100542.02
2019-03-25T17:26:42.551Z,100540.52
2019-03-25T17:29:12.142Z,100553.83
2019-03-25T17:31:42.793Z,100554.45
2019-03-25T17:34:13.565Z,100556.80
2019-03-25T17:36:45.626Z,100548.74
2019-03-25T17:39:16.384Z,100557.45
2019-03-25T17:41:47.249Z,100563.05
2019-03-25T17:44:17.991Z,100558.38
2019-03-25T17:46:48.644Z,100563.22
2019-03-25T17:49:19.500Z,100566.53
2019-03-25T17:51:50.253Z,100566.53
2019-03-25T17:54:22.029Z,100568.25
2019-03-25T17:56:52.784Z,100562.60
2019-03-25T17:59:23.436Z,100555.02
2019-03-25T18:01:54.178Z,100552.59
2019-03-25T18:04:25.847Z,100553.34
2019-03-25T18:06:56.416Z,100550.52
2019-03-25T18:09:27.168Z,100545.70
2019-03-25T18:11:57.907Z,100539.69
2019-03-25T18:14:28.677Z,100542.88
2019-03-25T18:16:59.335Z,100541.53
2019-03-25T18:19:30.286Z,100534.71
2019-03-25T18:22:01.142Z,100530.65
2019-03-25T18:24:31.895Z,100527.60
2019-03-25T18:27:02.750Z,100521.13
2019-03-25T18:29:33.894Z,100522.70
2019-03-25T18:32:04.666Z,100518.70
2019-03-25T18:34:35.317Z,100517.14
2019-03-25T18:37:07.285Z,100523.06
2019-03-25T18:39:38.162Z,100519.90
2019-03-25T18:42:08.914Z,100527.05
2019-03-25T18:44:39.667Z,100526.51
2019-03-25T18:47:13.076Z,100522.44
2019-03-25T18:49:43.730Z,100520.70
2019-03-25T18:52:17.859Z,100518.97
2019-03-25T18:55:02.522Z,100512.72
2019-03-25T18:57:33.787Z,100510.36
2019-03-25T19:00:09.385Z,100508.30
2019-03-25T19:02:39.796Z,100511.20
2019-03-25T19:05:10.551Z,100508.58
2019-03-25T19:07:41.227Z,100508.37
2019-03-25T19:10:17.866Z,100505.89
2019-03-25T19:12:48.740Z,100508.70
2019-03-25T19:15:20.115Z,100507.39
2019-03-25T19:17:50.674Z,100505.82
2019-03-25T19:20:21.418Z,100502.52
2019-03-25T19:22:53.779Z,100491.67
2019-03-25T19:25:23.549Z,100499.26
2019-03-25T19:27:54.596Z,100492.01
2019-03-25T19:30:25.151Z,100491.17
2019-03-25T19:32:56.521Z,100491.61
2019-03-25T19:35:30.221Z,100490.77
2019-03-25T19:38:00.785Z,100491.17
2019-03-25T19:40:31.456Z,100488.27
2019-03-25T19:43:03.798Z,100493.45
2019-03-25T19:45:34.588Z,100492.16
2019-03-25T19:48:05.244Z,100490.16
2019-03-25T19:50:35.885Z,100496.50
2019-03-25T19:53:18.282Z,100497.38
2019-03-25T19:55:39.852Z,100479.23
2019-03-25T19:58:10.621Z,100477.74
2019-03-25T20:00:41.443Z,100469.59
2019-03-25T20:03:12.134Z,100465.23
2019-03-25T20:05:42.982Z,100476.15
2019-03-25T20:08:13.847Z,100491.42
2019-03-25T20:10:44.594Z,100491.86
2019-03-25T20:13:16.780Z,100483.38
2019-03-25T20:15:47.642Z,100489.13
2019-03-25T20:18:18.541Z,100499.58
2019-03-25T20:20:49.369Z,100490.11
2019-03-25T20:23:20.123Z,100496.31
2019-03-25T20:25:50.928Z,100500.66
2019-03-25T20:28:21.675Z,100493.80
2019-03-25T20:30:52.448Z,100493.58
2019-03-25T20:33:23.953Z,100493.70
2019-03-25T20:35:54.571Z,100498.45
2019-03-25T20:38:25.344Z,100495.55
2019-03-25T20:40:55.975Z,100487.50
2019-03-25T20:43:26.774Z,100479.95
2019-03-25T20:45:57.688Z,100473.49
2019-03-25T20:48:28.344Z,100472.27
2019-03-25T20:51:00.495Z,100473.90
2019-03-25T20:53:31.226Z,100468.34
2019-03-25T20:56:03.089Z,100463.16
2019-03-25T20:58:34.420Z,100451.30
2019-03-25T21:01:05.265Z,100461.64
2019-03-25T21:03:36.031Z,100471.58
2019-03-25T21:06:06.917Z,100482.13
2019-03-25T21:08:38.272Z,100473.86
2019-03-25T21:11:09.315Z,100477.02
2019-03-25T21:13:39.917Z,100475.02
2019-03-25T21:16:10.934Z,100465.09
2019-03-25T21:18:42.617Z,100461.94
2019-03-25T21:21:13.366Z,100458.63
2019-03-25T21:23:44.122Z,100448.15
2019-03-25T21:26:13.965Z,100452.79
2019-03-25T21:28:44.368Z,100450.86
2019-03-25T21:31:14.575Z,100461.39
2019-03-25T21:33:45.089Z,100454.85
2019-03-25T21:36:15.763Z,100458.92
2019-03-25T21:38:46.776Z,100458.78
2019-03-25T21:41:18.169Z,100444.23
2019-03-25T21:43:48.647Z,100439.48
2019-03-25T21:46:19.444Z,100438.31
2019-03-25T21:48:50.455Z,100441.80
2019-03-25T21:51:21.078Z,100450.44
2019-03-25T21:53:53.286Z,100446.23
2019-03-25T21:56:24.913Z,100449.34
2019-03-25T21:58:55.891Z,100461.25
2019-03-25T22:01:26.583Z,100458.56
2019-03-25T22:03:57.294Z,100466.54
2019-03-25T22:06:28.150Z,100460.08
2019-03-25T22:08:58.905Z,100456.06
2019-03-25T22:11:29.541Z,100466.86
2019-03-25T22:13:59.617Z,100470.88
2019-03-25T22:16:30.142Z,100464.17
2019-03-25T22:19:00.777Z,100457.64
2019-03-25T22:21:31.529Z,100458.88
2019-03-25T22:24:02.405Z,100452.67
2019-03-25T22:26:33.158Z,100450.70
2019-03-25T22:29:03.790Z,100454.30
2019-03-25T22:31:34.547Z,100459.73
2019-03-25T22:34:05.419Z,100460.03
2019-03-25T22:36:36.054Z,100459.05
2019-03-25T22:39:06.222Z,100462.84
2019-03-25T22:41:36.436Z,100472.49
2019-03-25T22:44:07.214Z,100475.63
2019-03-25T22:46:37.741Z,100478.30
2019-03-25T22:49:08.613Z,100482.20
2019-03-25T22:51:39.366Z,100489.00
2019-03-25T22:54:10.001Z,100491.78
2019-03-25T22:56:41.574Z,100479.06
2019-03-25T22:59:12.231Z,100479.24
2019-03-25T23:01:42.194Z,100484.11
2019-03-25T23:04:12.732Z,100478.92
2019-03-25T23:06:43.481Z,100480.50
2019-03-25T23:09:14.335Z,100487.42
2019-03-25T23:11:45.074Z,100477.63
2019-03-25T23:14:15.846Z,100480.62
2019-03-25T23:16:46.497Z,100481.59
2019-03-25T23:19:17.352Z,100483.08
2019-03-25T23:21:48.209Z,100486.72
2019-03-25T23:24:18.963Z,100485.19
2019-03-25T23:26:49.614Z,100485.16
2019-03-25T23:29:20.473Z,100480.83
2019-03-25T23:31:51.229Z,100474.55
2019-03-25T23:34:26.271Z,100476.55
2019-03-25T23:36:56.907Z,100486.62
2019-03-25T23:39:27.662Z,100490.46
2019-03-25T23:41:58.419Z,100486.86
2019-03-25T23:44:29.190Z,100494.97
2019-03-25T23:46:59.821Z,100496.64
2019-03-25T23:49:30.695Z,100495.88
2019-03-25T23:52:01.738Z,100494.06
2019-03-25T23:54:32.389Z,100504.75
2019-03-25T23:57:04.286Z,100500.63
2019-03-25T23:59:35.140Z,100506.13
